sensor_id;sensor_type;location;lat;lon;timestamp;pressure;altitude;pressure_sealevel;temperature;humidity
28588;BME280;15787;49.662;10.162;2023-01-26T00:01:18;99766.78;;;1.30;93.02
28588;BME280;15787;49.662;10.162;2023-01-26T00:03:51;99770.03;;;1.19;93.40
28588;BME280;15787;49.662;10.162;2023-01-26T00:06:24;99761.53;;;0.97;94.22
28588;BME280;15787;49.662;10.162;2023-01-26T00:08:57;99759.03;;;1.35;94.73
28588;BME280;15787;49.662;10.162;2023-01-26T00:11:31;99761.19;;;1.42;94.36
28588;BME280;15787;49.662;10.162;2023-01-26T00:14:04;99756.72;;;1.21;94.65
28588;BME280;15787;49.662;10.162;2023-01-26T00:16:37;99762.09;;;1.46;94.35
28588;BME280;15787;49.662;10.162;2023-01-26T00:19:10;99754.72;;;1.65;94.07
28588;BME280;15787;49.662;10.162;2023-01-26T00:21:43;99760.94;;;0.76;93.91
28588;BME280;15787;49.662;10.162;2023-01-26T00:24:16;99755.31;;;0.32;95.96
28588;BME280;15787;49.662;10.162;2023-01-26T00:26:50;99747.44;;;0.07;97.35
28588;BME280;15787;49.662;10.162;2023-01-26T00:29:23;99747.53;;;0.22;98.40
28588;BME280;15787;49.662;10.162;2023-01-26T00:31:56;99747.94;;;0.48;98.71
28588;BME280;15787;49.662;10.162;2023-01-26T00:34:29;99753.44;;;1.16;97.87
28588;BME280;15787;49.662;10.162;2023-01-26T00:37:01;99745.91;;;1.28;96.59
28588;BME280;15787;49.662;10.162;2023-01-26T00:39:34;99745.53;;;1.30;95.92
28588;BME280;15787;49.662;10.162;2023-01-26T00:42:09;99748.63;;;0.85;96.25
28588;BME280;15787;49.662;10.162;2023-01-26T00:44:45;99746.28;;;0.99;96.98
28588;BME280;15787;49.662;10.162;2023-01-26T00:47:18;99745.72;;;1.21;96.08
28588;BME280;15787;49.662;10.162;2023-01-26T00:49:51;99744.69;;;0.98;96.04
28588;BME280;15787;49.662;10.162;2023-01-26T00:52:23;99740.91;;;1.18;96.04
28588;BME280;15787;49.662;10.162;2023-01-26T00:54:56;99747.13;;;1.15;95.43
28588;BME280;15787;49.662;10.162;2023-01-26T00:57:31;99733.69;;;0.71;96.20
28588;BME280;15787;49.662;10.162;2023-01-26T01:00:05;99735.34;;;1.31;96.13
28588;BME280;15787;49.662;10.162;2023-01-26T01:02:38;99736.03;;;0.84;95.52
28588;BME280;15787;49.662;10.162;2023-01-26T01:05:11;99737.97;;;1.11;96.41
28588;BME280;15787;49.662;10.162;2023-01-26T01:07:43;99738.31;;;1.10;96.14
28588;BME280;15787;49.662;10.162;2023-01-26T01:10:17;99739.28;;;0.74;96.15
28588;BME280;15787;49.662;10.162;2023-01-26T01:12:51;99730.38;;;0.65;96.61
28588;BME280;15787;49.662;10.162;2023-01-26T01:15:24;99721.81;;;1.10;97.00
28588;BME280;15787;49.662;10.162;2023-01-26T01:17:57;99726.38;;;1.34;96.31
28588;BME280;15787;49.662;10.162;2023-01-26T01:20:30;99721.31;;;1.36;95.54
28588;BME280;15787;49.662;10.162;2023-01-26T01:23:02;99724.78;;;1.17;95.05
28588;BME280;15787;49.662;10.162;2023-01-26T01:25:37;99727.00;;;1.27;95.02
28588;BME280;15787;49.662;10.162;2023-01-26T01:28:11;99722.03;;;1.33;94.85
28588;BME280;15787;49.662;10.162;2023-01-26T01:30:44;99719.56;;;1.00;95.06
28588;BME280;15787;49.662;10.162;2023-01-26T01:33:17;99717.00;;;0.91;95.84
28588;BME280;15787;49.662;10.162;2023-01-26T01:35:56;99719.84;;;0.95;96.07
28588;BME280;15787;49.662;10.162;2023-01-26T01:38:29;99720.31;;;1.12;95.09
28588;BME280;15787;49.662;10.162;2023-01-26T01:41:02;99720.31;;;1.12;95.56
28588;BME280;15787;49.662;10.162;2023-01-26T01:43:37;99717.75;;;1.04;95.99
28588;BME280;15787;49.662;10.162;2023-01-26T01:46:28;99723.69;;;1.06;95.78
28588;BME280;15787;49.662;10.162;2023-01-26T01:49:04;99712.13;;;1.00;96.14
28588;BME280;15787;49.662;10.162;2023-01-26T01:51:41;99707.13;;;0.90;96.08
28588;BME280;15787;49.662;10.162;2023-01-26T01:54:20;99704.72;;;0.73;96.39
28588;BME280;15787;49.662;10.162;2023-01-26T01:56:57;99697.28;;;0.89;96.81
28588;BME280;15787;49.662;10.162;2023-01-26T01:59:33;99689.75;;;0.86;96.84
28588;BME280;15787;49.662;10.162;2023-01-26T02:02:06;99682.47;;;1.21;96.68
28588;BME280;15787;49.662;10.162;2023-01-26T02:04:39;99677.50;;;0.84;96.04
28588;BME280;15787;49.662;10.162;2023-01-26T02:07:13;99668.53;;;0.87;96.92
28588;BME280;15787;49.662;10.162;2023-01-26T02:09:47;99672.16;;;0.75;96.75
28588;BME280;15787;49.662;10.162;2023-01-26T02:12:38;99675.25;;;1.01;96.83
28588;BME280;15787;49.662;10.162;2023-01-26T02:15:12;99671.09;;;0.80;96.87
28588;BME280;15787;49.662;10.162;2023-01-26T02:17:45;99657.03;;;0.81;97.22
28588;BME280;15787;49.662;10.162;2023-01-26T02:20:21;99668.41;;;0.95;97.21
28588;BME280;15787;49.662;10.162;2023-01-26T02:23:05;99659.09;;;1.15;97.31
28588;BME280;15787;49.662;10.162;2023-01-26T02:25:45;99658.25;;;1.27;95.97
28588;BME280;15787;49.662;10.162;2023-01-26T02:28:25;99646.69;;;1.21;95.56
28588;BME280;15787;49.662;10.162;2023-01-26T02:30:59;99640.66;;;1.32;94.70
28588;BME280;15787;49.662;10.162;2023-01-26T02:33:32;99650.31;;;1.10;94.06
28588;BME280;15787;49.662;10.162;2023-01-26T02:36:13;99644.31;;;0.61;94.57
28588;BME280;15787;49.662;10.162;2023-01-26T02:38:54;99638.50;;;0.94;95.27
28588;BME280;15787;49.662;10.162;2023-01-26T02:41:29;99643.38;;;1.00;95.11
28588;BME280;15787;49.662;10.162;2023-01-26T02:44:22;99640.00;;;0.91;95.49
28588;BME280;15787;49.662;10.162;2023-01-26T02:46:55;99632.50;;;0.60;95.35
28588;BME280;15787;49.662;10.162;2023-01-26T02:49:29;99633.72;;;0.91;95.60
28588;BME280;15787;49.662;10.162;2023-01-26T02:52:26;99624.75;;;0.78;96.26
28588;BME280;15787;49.662;10.162;2023-01-26T02:55:05;99636.69;;;0.70;96.39
28588;BME280;15787;49.662;10.162;2023-01-26T02:57:58;99626.44;;;0.98;96.29
28588;BME280;15787;49.662;10.162;2023-01-26T03:00:34;99619.97;;;1.06;96.39
28588;BME280;15787;49.662;10.162;2023-01-26T03:03:11;99620.88;;;1.26;95.80
28588;BME280;15787;49.662;10.162;2023-01-26T03:05:46;99611.63;;;1.34;95.28
28588;BME280;15787;49.662;10.162;2023-01-26T03:08:19;99608.09;;;1.18;94.41
28588;BME280;15787;49.662;10.162;2023-01-26T03:10:52;99607.16;;;0.67;94.63
28588;BME280;15787;49.662;10.162;2023-01-26T03:13:24;99602.59;;;1.18;95.80
28588;BME280;15787;49.662;10.162;2023-01-26T03:16:05;99607.88;;;0.80;95.54
28588;BME280;15787;49.662;10.162;2023-01-26T03:18:39;99609.47;;;0.65;95.72
28588;BME280;15787;49.662;10.162;2023-01-26T03:21:29;99608.78;;;0.40;97.18
28588;BME280;15787;49.662;10.162;2023-01-26T03:24:20;99600.00;;;0.94;96.83
28588;BME280;15787;49.662;10.162;2023-01-26T03:27:10;99618.53;;;0.53;97.16
28588;BME280;15787;49.662;10.162;2023-01-26T03:30:03;99610.03;;;0.86;97.60
28588;BME280;15787;49.662;10.162;2023-01-26T03:32:37;99607.53;;;0.38;97.29
28588;BME280;15787;49.662;10.162;2023-01-26T03:35:14;99615.34;;;0.24;97.79
28588;BME280;15787;49.662;10.162;2023-01-26T03:37:53;99608.47;;;0.30;97.96
28588;BME280;15787;49.662;10.162;2023-01-26T03:40:42;99612.56;;;0.63;98.21
28588;BME280;15787;49.662;10.162;2023-01-26T03:43:33;99618.09;;;0.51;97.35
28588;BME280;15787;49.662;10.162;2023-01-26T03:46:24;99602.16;;;0.57;97.94
28588;BME280;15787;49.662;10.162;2023-01-26T03:49:17;99609.19;;;0.70;97.81
28588;BME280;15787;49.662;10.162;2023-01-26T03:52:07;99613.81;;;0.66;97.69
28588;BME280;15787;49.662;10.162;2023-01-26T03:54:58;99606.31;;;0.51;97.95
28588;BME280;15787;49.662;10.162;2023-01-26T03:57:49;99602.38;;;0.80;97.66
28588;BME280;15787;49.662;10.162;2023-01-26T04:00:22;99594.59;;;1.28;95.72
28588;BME280;15787;49.662;10.162;2023-01-26T04:02:56;99597.78;;;0.99;94.99
28588;BME280;15787;49.662;10.162;2023-01-26T04:05:48;99610.03;;;1.02;94.60
28588;BME280;15787;49.662;10.162;2023-01-26T04:08:50;99608.09;;;1.34;94.24
28588;BME280;15787;49.662;10.162;2023-01-26T04:11:23;99617.56;;;1.36;93.29
28588;BME280;15787;49.662;10.162;2023-01-26T04:13:56;99610.56;;;1.23;93.15
28588;BME280;15787;49.662;10.162;2023-01-26T04:16:47;99609.66;;;1.50;92.26
28588;BME280;15787;49.662;10.162;2023-01-26T04:19:37;99608.53;;;1.36;91.79
28588;BME280;15787;49.662;10.162;2023-01-26T04:22:29;99608.09;;;1.18;91.67
28588;BME280;15787;49.662;10.162;2023-01-26T04:25:02;99608.25;;;0.94;92.26
28588;BME280;15787;49.662;10.162;2023-01-26T04:27:35;99604.63;;;1.21;91.89
28588;BME280;15787;49.662;10.162;2023-01-26T04:30:10;99596.47;;;1.09;91.65
28588;BME280;15787;49.662;10.162;2023-01-26T04:32:44;99599.63;;;0.80;92.30
28588;BME280;15787;49.662;10.162;2023-01-26T04:35:17;99588.50;;;1.04;92.75
28588;BME280;15787;49.662;10.162;2023-01-26T04:37:52;99597.97;;;0.91;92.54
28588;BME280;15787;49.662;10.162;2023-01-26T04:40:26;99601.06;;;0.89;92.57
28588;BME280;15787;49.662;10.162;2023-01-26T04:42:59;99586.06;;;1.02;92.29
28588;BME280;15787;49.662;10.162;2023-01-26T04:45:32;99601.16;;;0.93;91.61
28588;BME280;15787;49.662;10.162;2023-01-26T04:48:05;99594.88;;;1.08;91.19
28588;BME280;15787;49.662;10.162;2023-01-26T04:50:38;99598.50;;;0.96;91.31
28588;BME280;15787;49.662;10.162;2023-01-26T04:53:12;99592.94;;;0.22;93.65
28588;BME280;15787;49.662;10.162;2023-01-26T04:55:45;99584.94;;;0.44;94.95
28588;BME280;15787;49.662;10.162;2023-01-26T04:58:18;99588.81;;;0.28;95.89
28588;BME280;15787;49.662;10.162;2023-01-26T05:00:52;99590.59;;;0.63;95.83
28588;BME280;15787;49.662;10.162;2023-01-26T05:03:25;99591.63;;;0.59;95.74
28588;BME280;15787;49.662;10.162;2023-01-26T05:05:58;99582.44;;;0.98;95.67
28588;BME280;15787;49.662;10.162;2023-01-26T05:08:35;99579.94;;;0.78;95.45
28588;BME280;15787;49.662;10.162;2023-01-26T05:11:08;99586.50;;;0.30;95.89
28588;BME280;15787;49.662;10.162;2023-01-26T05:14:10;99582.78;;;0.66;95.67
28588;BME280;15787;49.662;10.162;2023-01-26T05:17:02;99584.75;;;1.12;94.71
28588;BME280;15787;49.662;10.162;2023-01-26T05:19:58;99582.00;;;1.12;94.12
28588;BME280;15787;49.662;10.162;2023-01-26T05:22:58;99586.88;;;1.03;93.33
28588;BME280;15787;49.662;10.162;2023-01-26T05:25:51;99590.16;;;0.77;93.61
28588;BME280;15787;49.662;10.162;2023-01-26T05:28:24;99597.84;;;0.72;94.45
28588;BME280;15787;49.662;10.162;2023-01-26T05:30:58;99586.41;;;0.70;95.26
28588;BME280;15787;49.662;10.162;2023-01-26T05:33:31;99586.16;;;0.90;94.53
28588;BME280;15787;49.662;10.162;2023-01-26T05:36:06;99582.72;;;1.24;93.74
28588;BME280;15787;49.662;10.162;2023-01-26T05:38:39;99586.19;;;1.21;92.35
28588;BME280;15787;49.662;10.162;2023-01-26T05:41:13;99586.19;;;1.21;91.59
28588;BME280;15787;49.662;10.162;2023-01-26T05:43:59;99578.78;;;0.94;93.00
28588;BME280;15787;49.662;10.162;2023-01-26T05:46:42;99583.75;;;1.04;92.84
28588;BME280;15787;49.662;10.162;2023-01-26T05:49:15;99584.31;;;0.79;93.58
28588;BME280;15787;49.662;10.162;2023-01-26T05:51:48;99590.06;;;0.74;94.14
28588;BME280;15787;49.662;10.162;2023-01-26T05:54:21;99594.69;;;1.01;94.44
28588;BME280;15787;49.662;10.162;2023-01-26T05:56:55;99597.00;;;0.83;94.66
28588;BME280;15787;49.662;10.162;2023-01-26T05:59:30;99585.63;;;1.00;94.62
28588;BME280;15787;49.662;10.162;2023-01-26T06:02:03;99583.88;;;1.23;93.69
28588;BME280;15787;49.662;10.162;2023-01-26T06:04:36;99587.03;;;0.63;94.64
28588;BME280;15787;49.662;10.162;2023-01-26T06:07:09;99590.63;;;0.51;96.31
28588;BME280;15787;49.662;10.162;2023-01-26T06:10:03;99585.81;;;0.48;96.15
28588;BME280;15787;49.662;10.162;2023-01-26T06:12:58;99581.50;;;0.20;97.82
28588;BME280;15787;49.662;10.162;2023-01-26T06:15:59;99589.31;;;0.18;99.01
28588;BME280;15787;49.662;10.162;2023-01-26T06:18:33;99587.66;;;0.29;99.10
28588;BME280;15787;49.662;10.162;2023-01-26T06:21:06;99584.34;;;0.67;99.35
28588;BME280;15787;49.662;10.162;2023-01-26T06:23:39;99584.31;;;0.51;99.22
28588;BME280;15787;49.662;10.162;2023-01-26T06:26:12;99575.97;;;0.91;98.38
28588;BME280;15787;49.662;10.162;2023-01-26T06:28:47;99582.09;;;1.15;96.85
28588;BME280;15787;49.662;10.162;2023-01-26T06:31:20;99590.88;;;0.46;97.01
28588;BME280;15787;49.662;10.162;2023-01-26T06:34:03;99588.47;;;0.73;97.30
28588;BME280;15787;49.662;10.162;2023-01-26T06:36:41;99597.53;;;0.89;97.12
28588;BME280;15787;49.662;10.162;2023-01-26T06:39:22;99589.25;;;1.20;95.68
28588;BME280;15787;49.662;10.162;2023-01-26T06:41:55;99602.94;;;0.85;94.71
28588;BME280;15787;49.662;10.162;2023-01-26T06:44:29;99594.78;;;0.89;95.36
28588;BME280;15787;49.662;10.162;2023-01-26T06:47:04;99589.13;;;0.54;95.78
28588;BME280;15787;49.662;10.162;2023-01-26T06:49:37;99598.59;;;1.00;95.69
28588;BME280;15787;49.662;10.162;2023-01-26T06:52:21;99592.19;;;0.80;95.08
28588;BME280;15787;49.662;10.162;2023-01-26T06:55:00;99597.97;;;0.91;94.99
28588;BME280;15787;49.662;10.162;2023-01-26T06:58:04;99596.53;;;1.12;94.79
28588;BME280;15787;49.662;10.162;2023-01-26T07:01:08;99606.13;;;1.18;93.94
28588;BME280;15787;49.662;10.162;2023-01-26T07:03:41;99600.19;;;1.32;93.31
28588;BME280;15787;49.662;10.162;2023-01-26T07:06:14;99601.59;;;1.26;92.30
28588;BME280;15787;49.662;10.162;2023-01-26T07:08:47;99596.81;;;1.23;91.89
28588;BME280;15787;49.662;10.162;2023-01-26T07:11:19;99602.03;;;1.12;91.33
28588;BME280;15787;49.662;10.162;2023-01-26T07:13:53;99604.09;;;1.00;91.97
28588;BME280;15787;49.662;10.162;2023-01-26T07:16:27;99602.84;;;0.97;92.26
28588;BME280;15787;49.662;10.162;2023-01-26T07:19:03;99599.75;;;0.83;92.51
28588;BME280;15787;49.662;10.162;2023-01-26T07:21:37;99607.63;;;0.85;92.96
28588;BME280;15787;49.662;10.162;2023-01-26T07:24:10;99600.72;;;1.06;92.93
28588;BME280;15787;49.662;10.162;2023-01-26T07:26:43;99609.78;;;0.91;93.05
28588;BME280;15787;49.662;10.162;2023-01-26T07:29:16;99603.19;;;0.37;94.71
28588;BME280;15787;49.662;10.162;2023-01-26T07:31:50;99605.03;;;0.60;96.00
28588;BME280;15787;49.662;10.162;2023-01-26T07:34:23;99607.13;;;0.51;96.63
28588;BME280;15787;49.662;10.162;2023-01-26T07:36:56;99597.50;;;1.04;96.99
28588;BME280;15787;49.662;10.162;2023-01-26T07:39:28;99600.72;;;1.22;96.06
28588;BME280;15787;49.662;10.162;2023-01-26T07:42:01;99607.53;;;1.28;95.05
28588;BME280;15787;49.662;10.162;2023-01-26T07:44:45;99604.19;;;1.19;93.93
28588;BME280;15787;49.662;10.162;2023-01-26T07:47:20;99599.50;;;1.04;93.33
28588;BME280;15787;49.662;10.162;2023-01-26T07:49:53;99608.97;;;1.06;93.79
28588;BME280;15787;49.662;10.162;2023-01-26T07:52:26;99609.75;;;1.22;93.09
28588;BME280;15787;49.662;10.162;2023-01-26T07:54:59;99599.94;;;1.21;92.30
28588;BME280;15787;49.662;10.162;2023-01-26T07:57:32;99602.84;;;0.97;92.35
28588;BME280;15787;49.662;10.162;2023-01-26T08:00:06;99593.88;;;1.00;92.81
28588;BME280;15787;49.662;10.162;2023-01-26T08:02:48;99594.16;;;1.26;92.12
28588;BME280;15787;49.662;10.162;2023-01-26T08:05:21;99588.94;;;1.21;91.03
28588;BME280;15787;49.662;10.162;2023-01-26T08:07:56;99588.56;;;1.07;91.70
28588;BME280;15787;49.662;10.162;2023-01-26T08:10:29;99596.75;;;1.19;91.35
28588;BME280;15787;49.662;10.162;2023-01-26T08:13:02;99591.69;;;1.06;90.88
28588;BME280;15787;49.662;10.162;2023-01-26T08:15:35;99588.66;;;1.11;91.05
28588;BME280;15787;49.662;10.162;2023-01-26T08:18:09;99595.56;;;0.89;92.23
28588;BME280;15787;49.662;10.162;2023-01-26T08:20:48;99593.25;;;1.07;92.28
28588;BME280;15787;49.662;10.162;2023-01-26T08:23:21;99595.28;;;0.94;92.92
28588;BME280;15787;49.662;10.162;2023-01-26T08:25:54;99586.94;;;0.59;93.75
28588;BME280;15787;49.662;10.162;2023-01-26T08:28:27;99583.94;;;0.80;94.64
28588;BME280;15787;49.662;10.162;2023-01-26T08:31:03;99581.75;;;1.01;94.77
28588;BME280;15787;49.662;10.162;2023-01-26T08:33:38;99582.19;;;1.03;94.54
28588;BME280;15787;49.662;10.162;2023-01-26T08:36:13;99582.88;;;1.16;94.01
28588;BME280;15787;49.662;10.162;2023-01-26T08:38:46;99579.06;;;1.05;94.10
28588;BME280;15787;49.662;10.162;2023-01-26T08:41:19;99568.00;;;0.86;94.68
28588;BME280;15787;49.662;10.162;2023-01-26T08:43:51;99574.81;;;1.07;94.81
28588;BME280;15787;49.662;10.162;2023-01-26T08:46:24;99576.69;;;1.19;94.45
28588;BME280;15787;49.662;10.162;2023-01-26T08:48:59;99580.94;;;0.85;94.95
28588;BME280;15787;49.662;10.162;2023-01-26T08:51:31;99577.22;;;0.93;95.39
28588;BME280;15787;49.662;10.162;2023-01-26T08:54:05;99583.69;;;1.01;96.08
28588;BME280;15787;49.662;10.162;2023-01-26T08:56:38;99582.34;;;1.10;95.81
28588;BME280;15787;49.662;10.162;2023-01-26T08:59:11;99584.03;;;0.84;95.48
28588;BME280;15787;49.662;10.162;2023-01-26T09:01:44;99588.66;;;1.11;95.83
28588;BME280;15787;49.662;10.162;2023-01-26T09:04:18;99575.28;;;0.94;95.38
28588;BME280;15787;49.662;10.162;2023-01-26T09:06:51;99584.09;;;0.72;96.31
28588;BME280;15787;49.662;10.162;2023-01-26T09:09:24;99579.44;;;0.44;97.61
28588;BME280;15787;49.662;10.162;2023-01-26T09:11:57;99582.59;;;0.74;99.05
28588;BME280;15787;49.662;10.162;2023-01-26T09:14:29;99587.94;;;1.14;98.23
28588;BME280;15787;49.662;10.162;2023-01-26T09:17:02;99594.16;;;1.26;97.30
28588;BME280;15787;49.662;10.162;2023-01-26T09:19:36;99602.47;;;1.30;95.95
28588;BME280;15787;49.662;10.162;2023-01-26T09:22:09;99595.03;;;1.31;94.72
28588;BME280;15787;49.662;10.162;2023-01-26T09:24:42;99600.84;;;0.67;95.67
28588;BME280;15787;49.662;10.162;2023-01-26T09:27:15;99591.31;;;0.33;98.43
28588;BME280;15787;49.662;10.162;2023-01-26T09:29:48;99596.66;;;0.57;99.66
28588;BME280;15787;49.662;10.162;2023-01-26T09:32:21;99599.88;;;0.75;100.00
28588;BME280;15787;49.662;10.162;2023-01-26T09:34:55;99591.06;;;0.53;100.00
28588;BME280;15787;49.662;10.162;2023-01-26T09:37:28;99595.53;;;0.58;100.00
28588;BME280;15787;49.662;10.162;2023-01-26T09:40:01;99599.31;;;0.53;100.00
28588;BME280;15787;49.662;10.162;2023-01-26T09:42:42;99599.28;;;0.38;100.00
28588;BME280;15787;49.662;10.162;2023-01-26T09:45:26;99603.28;;;0.40;100.00
28588;BME280;15787;49.662;10.162;2023-01-26T09:48:11;99603.53;;;0.63;100.00
28588;BME280;15787;49.662;10.162;2023-01-26T09:50:54;99608.22;;;0.62;100.00
28588;BME280;15787;49.662;10.162;2023-01-26T09:53:39;99611.53;;;0.56;100.00
28588;BME280;15787;49.662;10.162;2023-01-26T09:56:16;99610.06;;;0.58;100.00
28588;BME280;15787;49.662;10.162;2023-01-26T09:58:53;99605.66;;;0.70;100.00
28588;BME280;15787;49.662;10.162;2023-01-26T10:01:32;99608.94;;;0.75;100.00
28588;BME280;15787;49.662;10.162;2023-01-26T10:04:14;99607.88;;;0.80;100.00
28588;BME280;15787;49.662;10.162;2023-01-26T10:06:52;99614.03;;;0.89;100.00
28588;BME280;15787;49.662;10.162;2023-01-26T10:09:47;99604.66;;;0.62;100.00
28588;BME280;15787;49.662;10.162;2023-01-26T10:12:23;99609.94;;;0.83;100.00
28588;BME280;15787;49.662;10.162;2023-01-26T10:15:00;99607.78;;;0.92;100.00
28588;BME280;15787;49.662;10.162;2023-01-26T10:17:37;99603.41;;;0.59;100.00
28588;BME280;15787;49.662;10.162;2023-01-26T10:20:29;99603.53;;;0.63;100.00
28588;BME280;15787;49.662;10.162;2023-01-26T10:23:09;99591.22;;;0.73;100.00
28588;BME280;15787;49.662;10.162;2023-01-26T10:25:44;99597.06;;;0.71;100.00
28588;BME280;15787;49.662;10.162;2023-01-26T10:28:19;99598.56;;;0.84;100.00
28588;BME280;15787;49.662;10.162;2023-01-26T10:30:56;99589.53;;;0.84;100.00
28588;BME280;15787;49.662;10.162;2023-01-26T10:33:32;99589.63;;;0.87;100.00
28588;BME280;15787;49.662;10.162;2023-01-26T10:36:06;99593.28;;;0.91;100.00
28588;BME280;15787;49.662;10.162;2023-01-26T10:38:42;99589.19;;;0.85;100.00
28588;BME280;15787;49.662;10.162;2023-01-26T10:41:22;99589.88;;;0.82;100.00
28588;BME280;15787;49.662;10.162;2023-01-26T10:43:57;99588.28;;;0.66;100.00
28588;BME280;15787;49.662;10.162;2023-01-26T10:46:33;99582.88;;;1.00;100.00
28588;BME280;15787;49.662;10.162;2023-01-26T10:49:14;99587.75;;;0.76;100.00
28588;BME280;15787;49.662;10.162;2023-01-26T10:52:06;99585.16;;;0.67;100.00
28588;BME280;15787;49.662;10.162;2023-01-26T10:54:41;99575.59;;;0.61;100.00
28588;BME280;15787;49.662;10.162;2023-01-26T10:57:17;99575.97;;;0.75;100.00
28588;BME280;15787;49.662;10.162;2023-01-26T10:59:54;99579.41;;;0.72;100.00
28588;BME280;15787;49.662;10.162;2023-01-26T11:02:29;99573.03;;;0.68;100.00
28588;BME280;15787;49.662;10.162;2023-01-26T11:05:13;99560.34;;;0.79;100.00
28588;BME280;15787;49.662;10.162;2023-01-26T11:07:48;99566.88;;;0.59;100.00
28588;BME280;15787;49.662;10.162;2023-01-26T11:10:26;99554.94;;;0.67;100.00
28588;BME280;15787;49.662;10.162;2023-01-26T11:13:11;99550.59;;;0.82;100.00
28588;BME280;15787;49.662;10.162;2023-01-26T11:15:46;99542.75;;;0.37;100.00
28588;BME280;15787;49.662;10.162;2023-01-26T11:18:31;99539.63;;;0.66;100.00
28588;BME280;15787;49.662;10.162;2023-01-26T11:21:15;99544.75;;;0.68;100.00
28588;BME280;15787;49.662;10.162;2023-01-26T11:23:56;99544.03;;;0.55;100.00
28588;BME280;15787;49.662;10.162;2023-01-26T11:26:50;99545.28;;;0.73;100.00
28588;BME280;15787;49.662;10.162;2023-01-26T11:29:37;99532.97;;;0.98;100.00
28588;BME280;15787;49.662;10.162;2023-01-26T11:32:21;99531.88;;;0.87;100.00
28588;BME280;15787;49.662;10.162;2023-01-26T11:35:04;99530.47;;;0.93;100.00
28588;BME280;15787;49.662;10.162;2023-01-26T11:37:46;99534.63;;;0.87;100.00
28588;BME280;15787;49.662;10.162;2023-01-26T11:40:31;99527.97;;;0.57;100.00
28588;BME280;15787;49.662;10.162;2023-01-26T11:43:37;99525.66;;;0.59;100.00
28588;BME280;15787;49.662;10.162;2023-01-26T11:46:32;99519.56;;;0.66;100.00
28588;BME280;15787;49.662;10.162;2023-01-26T11:49:17;99519.91;;;0.64;100.00
28588;BME280;15787;49.662;10.162;2023-01-26T11:52:02;99512.84;;;0.63;100.00
28588;BME280;15787;49.662;10.162;2023-01-26T11:54:54;99504.16;;;0.61;100.00
28588;BME280;15787;49.662;10.162;2023-01-26T11:57:36;99499.44;;;0.61;100.00
28588;BME280;15787;49.662;10.162;2023-01-26T12:00:17;99500.84;;;0.40;100.00
28588;BME280;15787;49.662;10.162;2023-01-26T12:03:03;99494.19;;;0.72;100.00
28588;BME280;15787;49.662;10.162;2023-01-26T12:05:40;99496.94;;;0.72;100.00
28588;BME280;15787;49.662;10.162;2023-01-26T12:08:19;99506.25;;;0.52;100.00
28588;BME280;15787;49.662;10.162;2023-01-26T12:11:00;99493.94;;;0.61;100.00
28588;BME280;15787;49.662;10.162;2023-01-26T12:14:00;99498.00;;;0.52;100.00
28588;BME280;15787;49.662;10.162;2023-01-26T12:16:43;99498.38;;;0.66;100.00
28588;BME280;15787;49.662;10.162;2023-01-26T12:19:33;99486.13;;;0.32;100.00
28588;BME280;15787;49.662;10.162;2023-01-26T12:22:15;99482.94;;;0.61;100.00
28588;BME280;15787;49.662;10.162;2023-01-26T12:24:53;99482.88;;;0.74;100.00
28588;BME280;15787;49.662;10.162;2023-01-26T12:27:52;99484.00;;;0.73;100.00
28588;BME280;15787;49.662;10.162;2023-01-26T12:30:33;99481.97;;;0.54;100.00
28588;BME280;15787;49.662;10.162;2023-01-26T12:33:09;99477.00;;;0.44;100.00
28588;BME280;15787;49.662;10.162;2023-01-26T12:35:54;99474.78;;;0.49;100.00
28588;BME280;15787;49.662;10.162;2023-01-26T12:38:37;99476.38;;;0.35;100.00
28588;BME280;15787;49.662;10.162;2023-01-26T12:41:18;99474.34;;;0.63;100.00
28588;BME280;15787;49.662;10.162;2023-01-26T12:44:02;99468.69;;;0.40;100.00
28588;BME280;15787;49.662;10.162;2023-01-26T12:46:42;99480.28;;;0.65;100.00
28588;BME280;15787;49.662;10.162;2023-01-26T12:49:21;99469.72;;;0.36;100.00
28588;BME280;15787;49.662;10.162;2023-01-26T12:51:59;99466.72;;;0.41;100.00
28588;BME280;15787;49.662;10.162;2023-01-26T12:54:39;99459.09;;;0.50;100.00
28588;BME280;15787;49.662;10.162;2023-01-26T12:57:17;99456.97;;;0.28;100.00
28588;BME280;15787;49.662;10.162;2023-01-26T12:59:52;99462.56;;;0.47;100.00
28588;BME280;15787;49.662;10.162;2023-01-26T13:02:34;99450.44;;;0.63;100.00
28588;BME280;15787;49.662;10.162;2023-01-26T13:05:23;99450.44;;;0.48;100.00
28588;BME280;15787;49.662;10.162;2023-01-26T13:07:57;99449.09;;;0.57;100.00
28588;BME280;15787;49.662;10.162;2023-01-26T13:10:44;99452.63;;;0.42;100.00
28588;BME280;15787;49.662;10.162;2023-01-26T13:13:29;99452.72;;;0.46;100.00
28588;BME280;15787;49.662;10.162;2023-01-26T13:16:31;99446.97;;;0.35;100.00
28588;BME280;15787;49.662;10.162;2023-01-26T13:19:04;99454.22;;;0.28;100.00
28588;BME280;15787;49.662;10.162;2023-01-26T13:21:43;99451.19;;;0.48;100.00
28588;BME280;15787;49.662;10.162;2023-01-26T13:24:41;99453.34;;;0.55;100.00
28588;BME280;15787;49.662;10.162;2023-01-26T13:27:29;99465.09;;;0.87;100.00
28588;BME280;15787;49.662;10.162;2023-01-26T13:30:03;99459.53;;;0.36;100.00
28588;BME280;15787;49.662;10.162;2023-01-26T13:33:13;99456.97;;;0.59;100.00
28588;BME280;15787;49.662;10.162;2023-01-26T13:35:47;99455.28;;;0.70;100.00
28588;BME280;15787;49.662;10.162;2023-01-26T13:38:27;99456.09;;;0.71;99.94
28588;BME280;15787;49.662;10.162;2023-01-26T13:41:06;99458.47;;;0.72;99.52
28588;BME280;15787;49.662;10.162;2023-01-26T13:43:41;99443.88;;;0.68;98.38
28588;BME280;15787;49.662;10.162;2023-01-26T13:46:21;99452.44;;;0.67;98.06
28588;BME280;15787;49.662;10.162;2023-01-26T13:48:56;99448.44;;;0.64;97.87
28588;BME280;15787;49.662;10.162;2023-01-26T13:51:30;99464.34;;;0.55;97.76
28588;BME280;15787;49.662;10.162;2023-01-26T13:54:05;99459.72;;;0.75;97.38
28588;BME280;15787;49.662;10.162;2023-01-26T13:56:42;99463.09;;;0.52;97.45